createdAt,value
2018-12-13T00:00:30.790Z,99309.20
2018-12-13T00:02:57.857Z,99311.61
2018-12-13T00:05:25.095Z,99301.89
2018-12-13T00:07:52.175Z,99297.80
2018-12-13T00:10:19.220Z,99292.89
2018-12-13T00:12:46.311Z,99296.41
2018-12-13T00:15:16.033Z,99290.17
2018-12-13T00:17:43.281Z,99286.45
2018-12-13T00:20:10.363Z,99289.16
2018-12-13T00:22:37.555Z,99294.38
2018-12-13T00:25:04.681Z,99292.38
2018-12-13T00:27:31.732Z,99289.08
2018-12-13T00:29:59.731Z,99294.51
2018-12-13T00:32:26.777Z,99287.77
2018-12-13T00:34:53.883Z,99291.39
2018-12-13T00:37:20.975Z,99282.27
2018-12-13T00:39:48.045Z,99283.14
2018-12-13T00:42:15.217Z,99282.33
2018-12-13T00:44:42.336Z,99283.04
2018-12-13T00:47:09.431Z,99285.16
2018-12-13T00:49:36.516Z,99279.72
2018-12-13T00:52:03.663Z,99274.72
2018-12-13T00:54:32.065Z,99269.16
2018-12-13T00:56:59.182Z,99270.79
2018-12-13T00:59:26.243Z,99270.42
2018-12-13T01:01:53.735Z,99264.09
2018-12-13T01:04:21.770Z,99262.71
2018-12-13T01:06:48.847Z,99263.48
2018-12-13T01:09:15.927Z,99265.02
2018-12-13T01:11:43.003Z,99261.72
2018-12-13T01:14:10.089Z,99260.03
2018-12-13T01:16:37.183Z,99258.28
2018-12-13T01:19:04.376Z,99113.48
2018-12-13T01:21:31.484Z,99251.08
2018-12-13T01:23:58.618Z,99256.23
2018-12-13T01:26:25.775Z,99255.53
2018-12-13T01:28:52.921Z,99248.11
2018-12-13T01:31:20.210Z,99251.91
2018-12-13T01:33:47.345Z,99249.20
2018-12-13T01:36:16.048Z,99244.19
2018-12-13T01:38:43.180Z,99237.39
2018-12-13T01:41:10.282Z,99238.58
2018-12-13T01:43:37.353Z,99241.69
2018-12-13T01:46:04.472Z,99242.06
2018-12-13T01:48:31.592Z,99236.88
2018-12-13T01:50:58.667Z,99242.50
2018-12-13T01:53:27.204Z,99235.08
2018-12-13T01:55:54.302Z,99233.67
2018-12-13T01:58:21.344Z,99232.86
2018-12-13T02:00:48.487Z,99227.64
2018-12-13T02:03:15.680Z,99230.06
2018-12-13T02:05:42.849Z,99219.45
2018-12-13T02:08:09.944Z,99219.23
2018-12-13T02:10:36.988Z,99219.43
2018-12-13T02:13:04.155Z,99219.03
2018-12-13T02:15:32.767Z,99175.86
2018-12-13T02:17:59.919Z,99208.50
2018-12-13T02:20:27.109Z,99208.19
2018-12-13T02:22:54.216Z,99207.39
2018-12-13T02:25:21.708Z,99202.08
2018-12-13T02:27:48.816Z,99204.59
2018-12-13T02:30:17.960Z,99200.48
2018-12-13T02:32:45.150Z,99199.17
2018-12-13T02:35:12.235Z,99197.98
2018-12-13T02:37:39.379Z,99193.47
2018-12-13T02:40:06.448Z,99195.38
2018-12-13T02:42:33.600Z,99191.14
2018-12-13T02:45:00.650Z,99190.16
2018-12-13T02:47:27.791Z,99188.59
2018-12-13T02:49:54.844Z,99186.46
2018-12-13T02:52:21.899Z,99187.47
2018-12-13T02:54:48.939Z,99183.33
2018-12-13T02:57:16.047Z,99188.46
2018-12-13T02:59:43.134Z,99181.55
2018-12-13T03:02:10.200Z,99189.58
2018-12-13T03:04:37.300Z,99189.38
2018-12-13T03:07:04.338Z,99188.17
2018-12-13T03:09:31.436Z,99189.79
2018-12-13T03:11:58.631Z,99184.58
2018-12-13T03:14:25.792Z,99180.95
2018-12-13T03:16:53.853Z,99180.95
2018-12-13T03:19:21.089Z,99180.56
2018-12-13T03:21:48.156Z,99180.45
2018-12-13T03:24:15.252Z,99175.12
2018-12-13T03:26:42.401Z,99165.91
2018-12-13T03:29:09.503Z,99164.20
2018-12-13T03:31:36.672Z,99167.41
2018-12-13T03:34:03.913Z,99163.30
2018-12-13T03:36:31.017Z,98902.70
2018-12-13T03:38:58.120Z,99164.23
2018-12-13T03:41:25.327Z,99160.72
2018-12-13T03:43:53.026Z,99156.78
2018-12-13T03:46:20.080Z,99158.42
2018-12-13T03:48:47.220Z,99150.13
2018-12-13T03:51:14.327Z,99150.73
2018-12-13T03:53:41.445Z,99147.22
2018-12-13T03:56:08.629Z,99145.22
2018-12-13T03:58:35.718Z,99137.23
2018-12-13T04:01:02.849Z,99135.61
2018-12-13T04:03:29.885Z,99129.40
2018-12-13T04:05:56.967Z,99121.97
2018-12-13T04:08:24.077Z,99124.46
2018-12-13T04:10:51.193Z,99120.95
2018-12-13T04:13:18.453Z,99118.16
2018-12-13T04:15:46.209Z,99121.13
2018-12-13T04:18:13.366Z,99124.45
2018-12-13T04:20:40.591Z,99128.58
2018-12-13T04:23:07.689Z,98928.70
2018-12-13T04:25:34.829Z,99119.26
2018-12-13T04:28:02.000Z,99113.55
2018-12-13T04:30:29.073Z,99116.97
2018-12-13T04:32:56.194Z,99111.33
2018-12-13T04:35:23.425Z,99116.06
2018-12-13T04:37:50.533Z,99109.95
2018-12-13T04:40:17.698Z,99111.84
2018-12-13T04:42:44.842Z,99098.43
2018-12-13T04:45:11.906Z,99100.23
2018-12-13T04:47:39.893Z,99102.67
2018-12-13T04:50:06.992Z,99098.06
2018-12-13T04:52:34.181Z,99100.34
2018-12-13T04:55:01.331Z,99085.33
2018-12-13T04:57:28.488Z,99093.35
2018-12-13T04:59:55.626Z,99092.84
2018-12-13T05:02:22.731Z,99091.44
2018-12-13T05:04:49.897Z,99094.42
2018-12-13T05:07:17.034Z,99089.44
2018-12-13T05:09:44.157Z,99089.23
2018-12-13T05:12:11.339Z,99086.95
2018-12-13T05:14:38.433Z,99084.75
2018-12-13T05:17:05.540Z,99081.85
2018-12-13T05:19:32.632Z,99084.23
2018-12-13T05:21:59.775Z,99084.13
2018-12-13T05:24:26.831Z,99078.69
2018-12-13T05:26:53.891Z,99089.11
2018-12-13T05:29:20.946Z,99083.02
2018-12-13T05:31:48.843Z,99083.53
2018-12-13T05:34:15.937Z,99083.14
2018-12-13T05:36:43.159Z,99085.91
2018-12-13T05:39:10.245Z,99080.80
2018-12-13T05:41:37.336Z,99083.92
2018-12-13T05:49:03.716Z,99077.42
2018-12-13T05:51:30.952Z,99072.33
2018-12-13T05:53:58.099Z,99071.22
2018-12-13T05:56:25.247Z,99069.81
2018-12-13T05:58:52.319Z,99072.73
2018-12-13T06:01:19.416Z,99076.75
2018-12-13T06:03:46.486Z,99072.14
2018-12-13T06:06:13.606Z,99075.62
2018-12-13T06:08:40.679Z,99073.34
2018-12-13T06:11:07.697Z,99069.92
2018-12-13T06:13:34.784Z,99072.21
2018-12-13T06:16:01.875Z,99074.44
2018-12-13T06:18:28.954Z,99071.63
2018-12-13T06:20:56.026Z,99071.13
2018-12-13T06:23:23.123Z,99069.66
2018-12-13T06:25:50.582Z,99069.34
2018-12-13T06:28:17.857Z,99068.95
2018-12-13T06:30:45.107Z,99071.45
2018-12-13T06:33:12.273Z,99072.75
2018-12-13T06:35:39.491Z,99064.52
2018-12-13T06:38:06.793Z,99063.14
2018-12-13T06:40:34.018Z,99060.61
2018-12-13T06:43:01.132Z,99016.00
2018-12-13T06:45:28.247Z,99063.92
2018-12-13T06:47:55.287Z,99059.63
2018-12-13T06:50:22.396Z,99066.95
2018-12-13T06:52:49.573Z,99063.42
2018-12-13T06:55:16.739Z,99069.72
2018-12-13T06:57:43.868Z,99066.53
2018-12-13T07:00:11.020Z,99063.81
2018-12-13T07:02:38.150Z,99068.36
2018-12-13T07:05:05.447Z,99073.64
2018-12-13T07:07:32.851Z,99073.64
2018-12-13T07:09:59.939Z,99081.66
2018-12-13T07:12:27.660Z,99082.03
2018-12-13T07:14:54.951Z,99082.56
2018-12-13T07:17:22.020Z,99086.58
2018-12-13T07:19:49.304Z,99086.27
2018-12-13T07:22:16.420Z,99084.85
2018-12-13T07:24:43.498Z,99079.55
2018-12-13T07:27:10.563Z,99076.94
2018-12-13T07:29:37.696Z,99075.85
2018-12-13T07:32:05.403Z,99075.04
2018-12-13T07:34:32.664Z,99066.23
2018-12-13T07:36:59.879Z,99063.33
2018-12-13T07:39:27.215Z,99069.73
2018-12-13T07:41:54.329Z,99063.55
2018-12-13T07:44:21.377Z,99063.44
2018-12-13T07:46:48.544Z,99061.75
2018-12-13T07:49:15.777Z,99059.53
2018-12-13T07:51:42.871Z,99065.75
2018-12-13T07:54:09.953Z,99064.45
2018-12-13T07:56:37.137Z,98985.28
2018-12-13T07:59:04.322Z,99062.84
2018-12-13T08:01:32.602Z,99059.64
2018-12-13T08:03:59.943Z,99066.53
2018-12-13T08:06:27.066Z,99069.84
2018-12-13T08:08:54.260Z,99066.35
2018-12-13T08:11:21.414Z,99069.23
2018-12-13T08:13:48.619Z,99072.75
2018-12-13T08:16:15.799Z,99079.65
2018-12-13T08:18:43.006Z,99076.77
2018-12-13T08:21:10.116Z,99082.75
2018-12-13T08:23:37.472Z,99077.14
2018-12-13T08:26:04.612Z,99086.03
2018-12-13T08:28:31.789Z,99083.16
2018-12-13T08:30:59.001Z,99082.23
2018-12-13T08:33:26.401Z,99077.64
2018-12-13T08:35:53.988Z,99075.14
2018-12-13T08:38:27.052Z,99074.25
2018-12-13T08:40:50.359Z,99078.84
2018-12-13T08:43:17.451Z,99081.84
2018-12-13T08:45:44.524Z,99078.44
2018-12-13T08:48:12.369Z,99076.44
2018-12-13T08:50:39.555Z,99073.84
2018-12-13T08:53:06.714Z,99072.55
2018-12-13T08:55:33.904Z,99068.25
2018-12-13T08:58:01.716Z,99071.95
2018-12-13T09:00:28.895Z,99065.75
2018-12-13T09:02:56.659Z,99070.95
2018-12-13T09:05:23.733Z,99064.83
2018-12-13T09:07:50.810Z,99072.64
2018-12-13T09:10:18.055Z,99072.54
2018-12-13T09:12:45.282Z,99064.44
2018-12-13T09:15:12.411Z,99061.42
2018-12-13T09:17:39.499Z,99059.19
2018-12-13T09:20:06.687Z,99062.70
2018-12-13T09:22:33.762Z,99066.61
2018-12-13T09:25:02.447Z,99055.28
2018-12-13T09:27:29.617Z,99057.88
2018-12-13T09:29:56.897Z,99062.47
2018-12-13T09:32:24.035Z,99063.59
2018-12-13T09:34:52.136Z,99055.89
2018-12-13T09:37:19.281Z,99054.48
2018-12-13T09:39:46.466Z,99057.20
2018-12-13T09:42:13.543Z,99056.50
2018-12-13T09:44:40.748Z,99054.06
2018-12-13T09:47:07.831Z,99061.97
2018-12-13T09:49:34.880Z,99056.27
2018-12-13T09:52:02.014Z,99059.55
2018-12-13T09:54:30.127Z,99065.27
2018-12-13T09:56:57.302Z,99051.60
2018-12-13T09:59:25.133Z,99050.06
2018-12-13T10:01:52.308Z,99049.56
2018-12-13T10:04:19.508Z,99046.77
2018-12-13T10:06:46.767Z,99047.17
2018-12-13T10:09:13.939Z,99044.45
2018-12-13T10:11:42.173Z,98958.43
2018-12-13T10:14:09.822Z,99040.11
2018-12-13T10:16:37.712Z,99040.30
2018-12-13T10:19:05.832Z,99026.65
2018-12-13T10:21:32.981Z,99023.98
2018-12-13T10:24:01.413Z,99023.54
2018-12-13T10:26:29.293Z,99014.59
2018-12-13T10:28:57.307Z,99015.65
2018-12-13T10:31:24.499Z,99005.03
2018-12-13T10:33:51.744Z,99005.58
2018-12-13T10:36:19.238Z,99003.09
2018-12-13T10:38:52.800Z,99004.05
2018-12-13T10:41:15.545Z,98956.80
2018-12-13T10:43:42.699Z,98995.41
2018-12-13T10:46:09.822Z,99001.23
2018-12-13T10:48:37.226Z,99003.30
2018-12-13T10:51:04.420Z,98995.89
2018-12-13T10:53:31.540Z,98999.56
2018-12-13T10:55:59.693Z,98987.76
2018-12-13T10:58:27.775Z,98995.13
2018-12-13T11:01:00.468Z,98990.47
2018-12-13T11:03:34.106Z,98990.29
2018-12-13T11:06:01.257Z,98981.95
2018-12-13T11:08:28.496Z,98989.46
2018-12-13T11:10:55.604Z,98989.28
2018-12-13T11:13:22.715Z,98986.27
2018-12-13T11:15:50.568Z,98972.47
2018-12-13T11:18:17.712Z,98972.75
2018-12-13T11:20:44.965Z,98979.27
2018-12-13T11:23:12.876Z,98970.61
2018-12-13T11:25:39.975Z,98967.94
2018-12-13T11:30:21.764Z,98969.77
2018-12-13T11:32:49.344Z,98970.13
2018-12-13T11:35:16.508Z,98969.55
2018-12-13T11:37:43.918Z,98971.45
2018-12-13T11:40:11.152Z,98979.71
2018-12-13T11:42:38.399Z,98980.52
2018-12-13T11:45:05.953Z,98969.19
2018-12-13T11:47:33.110Z,98973.89
2018-12-13T11:50:00.263Z,98976.48
2018-12-13T11:52:27.331Z,98969.16
2018-12-13T11:54:55.161Z,98966.73
2018-12-13T11:57:22.388Z,98960.98
2018-12-13T11:59:50.649Z,98960.27
2018-12-13T12:02:23.830Z,98959.55
2018-12-13T12:04:47.008Z,98956.11
2018-12-13T12:07:14.338Z,98948.00
2018-12-13T12:09:41.443Z,98952.02
2018-12-13T12:12:08.936Z,98953.50
2018-12-13T12:14:36.165Z,98937.86
2018-12-13T12:17:03.315Z,98947.20
2018-12-13T12:19:31.196Z,98943.97
2018-12-13T12:21:58.504Z,98949.27
2018-12-13T12:24:26.007Z,98945.41
2018-12-13T12:26:56.080Z,98944.05
2018-12-13T12:29:23.387Z,98947.20
2018-12-13T12:31:51.015Z,98939.83
2018-12-13T12:34:18.465Z,98943.38
2018-12-13T12:36:45.679Z,98939.48
2018-12-13T12:39:18.391Z,98929.58
2018-12-13T12:41:43.314Z,98936.83
2018-12-13T12:44:11.163Z,98936.67
2018-12-13T12:46:38.291Z,98935.43
2018-12-13T12:49:05.475Z,98934.71
2018-12-13T12:51:32.536Z,98938.20
2018-12-13T12:53:59.723Z,98932.63
2018-12-13T12:56:26.919Z,98945.00
2018-12-13T12:58:54.071Z,98926.38
2018-12-13T13:01:21.425Z,98933.13
2018-12-13T13:03:49.450Z,98929.31
2018-12-13T13:06:16.672Z,98927.37
2018-12-13T13:08:43.852Z,98931.46
2018-12-13T13:11:11.073Z,98931.00
2018-12-13T13:13:38.297Z,98930.32
2018-12-13T13:16:05.953Z,98935.86
2018-12-13T13:18:39.055Z,98938.27
2018-12-13T13:21:03.379Z,98933.27
2018-12-13T13:23:30.506Z,98939.20
2018-12-13T13:25:57.768Z,98933.27
2018-12-13T13:28:24.900Z,98927.42
2018-12-13T13:30:52.061Z,98920.31
2018-12-13T13:33:19.324Z,98919.12
2018-12-13T13:35:46.702Z,98925.92
2018-12-13T13:38:14.026Z,98926.02
2018-12-13T13:40:41.359Z,98920.12
2018-12-13T13:43:08.528Z,98915.84
2018-12-13T13:45:35.889Z,98920.06
2018-12-13T13:48:03.020Z,98921.56
2018-12-13T13:50:30.149Z,98907.84
2018-12-13T13:52:57.257Z,98907.98
2018-12-13T13:55:24.490Z,98909.06
2018-12-13T13:57:52.131Z,98875.24
2018-12-13T14:00:19.398Z,98908.86
2018-12-13T14:02:46.633Z,98903.98
2018-12-13T14:05:14.688Z,98901.73
2018-12-13T14:07:41.808Z,98912.09
2018-12-13T14:10:08.944Z,98907.40
2018-12-13T14:12:36.096Z,98914.28
2018-12-13T14:15:05.476Z,98912.56
2018-12-13T14:17:32.549Z,98922.71
2018-12-13T14:20:01.688Z,98911.61
2018-12-13T14:22:28.784Z,98912.77
2018-12-13T14:24:56.005Z,98909.13
2018-12-13T14:27:23.291Z,98909.43
2018-12-13T14:29:50.392Z,98905.66
2018-12-13T14:32:18.165Z,98913.38
2018-12-13T14:34:45.407Z,98918.02
2018-12-13T14:37:12.620Z,98920.75
2018-12-13T14:39:44.445Z,98923.11
2018-12-13T14:42:09.025Z,98921.56
2018-12-13T14:44:36.136Z,98925.11
2018-12-13T14:47:03.611Z,98919.98
2018-12-13T14:49:30.884Z,98918.31
2018-12-13T14:51:58.436Z,98922.09
2018-12-13T14:54:25.682Z,98919.26
2018-12-13T14:56:53.055Z,98921.00
2018-12-13T14:59:20.212Z,98926.33
2018-12-13T15:01:47.795Z,98923.03
2018-12-13T15:04:15.826Z,98925.36
2018-12-13T15:06:42.965Z,98924.20
2018-12-13T15:09:10.271Z,98928.41
2018-12-13T15:11:37.994Z,98931.66
2018-12-13T15:14:05.209Z,98929.97
2018-12-13T15:16:34.439Z,98891.45
2018-12-13T15:19:01.739Z,98928.75
2018-12-13T15:21:30.074Z,98927.81
2018-12-13T15:23:57.235Z,98927.55
2018-12-13T15:26:24.544Z,98928.94
2018-12-13T15:28:52.811Z,98931.69
2018-12-13T15:31:20.603Z,98935.43
2018-12-13T15:33:47.772Z,98934.71
2018-12-13T15:36:15.613Z,98937.80
2018-12-13T15:38:42.799Z,98937.66
2018-12-13T15:41:10.104Z,98933.94
2018-12-13T15:43:37.273Z,98942.53
2018-12-13T15:46:05.119Z,98940.95
2018-12-13T15:48:32.279Z,98943.52
2018-12-13T15:50:59.435Z,98944.28
2018-12-13T15:53:27.100Z,98933.41
2018-12-13T15:55:54.292Z,98946.40
2018-12-13T15:58:21.463Z,98948.95
2018-12-13T16:00:48.675Z,98947.84
2018-12-13T16:03:15.908Z,98948.06
2018-12-13T16:05:43.979Z,98949.37
2018-12-13T16:08:11.246Z,98949.05
2018-12-13T16:10:38.479Z,98943.52
2018-12-13T16:13:06.016Z,98946.67
2018-12-13T16:15:33.189Z,98943.16
2018-12-13T16:18:00.388Z,98944.96
2018-12-13T16:20:27.767Z,98944.83
2018-12-13T16:22:55.690Z,98938.30
2018-12-13T16:25:22.834Z,98942.48
2018-12-13T16:27:49.902Z,98949.63
2018-12-13T16:30:18.207Z,98947.26
2018-12-13T16:32:45.452Z,98946.67
2018-12-13T16:35:13.541Z,98950.67
2018-12-13T16:37:40.845Z,98949.05
2018-12-13T16:40:10.496Z,98951.08
2018-12-13T16:42:37.305Z,98954.80
2018-12-13T16:45:04.870Z,98949.63
2018-12-13T16:47:31.969Z,98944.20
2018-12-13T16:49:59.177Z,98943.07
2018-12-13T16:52:27.060Z,98895.91
2018-12-13T16:54:54.204Z,98943.03
2018-12-13T16:57:21.909Z,98936.23
2018-12-13T16:59:49.054Z,98940.38
2018-12-13T17:02:16.276Z,98941.85
2018-12-13T17:04:43.556Z,98939.83
2018-12-13T17:07:11.112Z,98940.02
2018-12-13T17:09:38.344Z,98943.29
2018-12-13T17:12:05.604Z,98938.94
2018-12-13T17:14:32.816Z,98787.42
2018-12-13T17:17:00.005Z,98948.16
2018-12-13T17:19:27.135Z,98946.94
2018-12-13T17:21:54.277Z,98940.96
2018-12-13T17:24:22.316Z,98944.11
2018-12-13T17:26:49.566Z,98944.55
2018-12-13T17:29:16.690Z,98938.98
2018-12-13T17:31:45.974Z,98936.38
2018-12-13T17:34:13.330Z,98933.62
2018-12-13T17:36:41.785Z,98946.03
2018-12-13T17:39:10.516Z,98940.55
2018-12-13T17:41:39.292Z,98946.81
2018-12-13T17:44:08.096Z,98949.37
2018-12-13T17:46:35.857Z,98940.64
2018-12-13T17:49:04.323Z,98940.20
2018-12-13T17:51:33.578Z,98937.72
2018-12-13T17:54:02.400Z,98934.80
2018-12-13T17:56:30.142Z,98934.48
2018-12-13T17:58:57.687Z,98936.14
2018-12-13T18:01:26.064Z,98937.41
2018-12-13T18:03:53.855Z,98936.38
2018-12-13T18:06:21.572Z,98947.98
2018-12-13T18:08:50.287Z,98946.67
2018-12-13T18:11:18.853Z,98952.38
2018-12-13T18:13:47.104Z,98944.73
2018-12-13T18:16:15.280Z,98948.65
2018-12-13T18:18:42.854Z,98950.81
2018-12-13T18:21:10.085Z,98949.77
2018-12-13T18:23:37.161Z,98944.95
2018-12-13T18:26:04.210Z,98946.29
2018-12-13T18:28:31.312Z,98950.82
2018-12-13T18:30:58.412Z,98946.97
2018-12-13T18:33:25.528Z,98954.78
2018-12-13T18:35:52.662Z,98952.36
2018-12-13T18:38:19.966Z,98944.41
2018-12-13T18:40:47.033Z,98938.62
2018-12-13T18:43:14.052Z,98948.50
2018-12-13T18:45:41.161Z,98950.35
2018-12-13T18:48:08.305Z,98942.58
2018-12-13T18:50:35.492Z,98941.00
2018-12-13T18:53:02.727Z,98943.02
2018-12-13T18:55:30.043Z,98939.29
2018-12-13T18:57:57.133Z,98905.94
2018-12-13T19:00:24.348Z,98945.88
2018-12-13T19:02:51.532Z,98941.98
2018-12-13T19:05:18.781Z,98943.02
2018-12-13T19:07:45.930Z,98944.58
2018-12-13T19:10:13.080Z,98940.63
2018-12-13T19:12:41.399Z,98940.95
2018-12-13T19:15:08.616Z,98938.92
2018-12-13T19:17:35.861Z,98936.41
2018-12-13T19:20:05.261Z,98936.68
2018-12-13T19:22:32.494Z,98938.36
2018-12-13T19:24:59.639Z,98946.48
2018-12-13T19:27:27.024Z,98944.59
2018-12-13T19:29:54.134Z,98943.97
2018-12-13T19:32:21.292Z,98948.55
2018-12-13T19:34:49.256Z,98941.31
2018-12-13T19:37:16.495Z,98945.55
2018-12-13T19:39:43.644Z,98943.57
2018-12-13T19:42:10.819Z,98940.06
2018-12-13T19:44:39.779Z,98946.30
2018-12-13T19:47:07.191Z,98951.61
2018-12-13T19:49:34.368Z,98952.64
2018-12-13T19:52:01.453Z,98959.25
2018-12-13T19:54:28.629Z,98961.72
2018-12-13T19:56:55.805Z,98958.62
2018-12-13T19:59:22.927Z,98957.41
2018-12-13T20:01:50.069Z,98959.58
2018-12-13T20:04:17.170Z,98958.95
2018-12-13T20:06:44.366Z,98956.37
2018-12-13T20:09:12.190Z,98958.63
2018-12-13T20:11:39.324Z,98960.39
2018-12-13T20:14:06.555Z,98967.53
2018-12-13T20:16:33.661Z,98968.03
2018-12-13T20:19:01.608Z,98968.84
2018-12-13T20:21:28.873Z,98970.32
2018-12-13T20:23:56.139Z,98974.27
2018-12-13T20:26:23.244Z,98978.81
2018-12-13T20:28:50.573Z,98979.67
2018-12-13T20:31:17.933Z,98981.56
2018-12-13T20:33:45.205Z,98976.74
2018-12-13T20:36:12.345Z,98984.80
2018-12-13T20:38:40.268Z,98988.63
2018-12-13T20:41:07.450Z,98993.80
2018-12-13T20:43:35.294Z,98995.76
2018-12-13T20:48:44.779Z,98997.20
2018-12-13T20:51:17.307Z,99005.34
2018-12-13T20:53:44.971Z,99018.56
2018-12-13T20:56:12.093Z,99011.59
2018-12-13T20:58:39.389Z,99008.73
2018-12-13T21:01:06.512Z,99003.77
2018-12-13T21:03:33.724Z,99009.09
2018-12-13T21:06:00.926Z,99009.98
2018-12-13T21:08:28.651Z,99011.73
2018-12-13T21:10:55.879Z,99006.96
2018-12-13T21:13:23.044Z,99008.41
2018-12-13T21:15:50.383Z,99005.17
2018-12-13T21:18:17.535Z,98995.31
2018-12-13T21:20:44.925Z,98991.64
2018-12-13T21:23:12.232Z,98989.79
2018-12-13T21:25:39.325Z,98983.67
2018-12-13T21:28:06.555Z,98985.66
2018-12-13T21:30:33.698Z,98986.20
2018-12-13T21:33:00.796Z,98983.73
2018-12-13T21:35:28.151Z,98987.64
2018-12-13T21:37:55.337Z,98982.77
2018-12-13T21:40:22.443Z,98989.11
2018-12-13T21:42:49.646Z,98981.92
2018-12-13T21:45:16.969Z,98988.27
2018-12-13T21:47:44.133Z,98987.14
2018-12-13T21:50:11.264Z,98985.08
2018-12-13T21:52:38.417Z,98993.75
2018-12-13T21:55:05.505Z,98996.07
2018-12-13T21:57:33.306Z,99003.23
2018-12-13T22:00:00.523Z,98998.37
2018-12-13T22:02:27.625Z,99004.76
2018-12-13T22:04:54.709Z,99003.34
2018-12-13T22:07:21.818Z,99022.14
2018-12-13T22:09:48.872Z,99006.34
2018-12-13T22:12:16.011Z,99003.88
2018-12-13T22:14:43.107Z,98998.11
2018-12-13T22:17:10.306Z,98998.11
2018-12-13T22:19:37.384Z,98996.94
2018-12-13T22:22:04.552Z,98996.09
2018-12-13T22:24:32.058Z,99001.36
2018-12-13T22:26:59.141Z,99011.20
2018-12-13T22:29:26.328Z,99011.34
2018-12-13T22:31:53.765Z,99018.70
2018-12-13T22:34:21.058Z,99025.28
2018-12-13T22:36:48.560Z,99014.62
2018-12-13T22:39:16.169Z,99027.66
2018-12-13T22:41:43.315Z,99024.02
2018-12-13T22:44:10.421Z,99022.81
2018-12-13T22:46:38.175Z,99026.67
2018-12-13T22:49:05.324Z,99024.66
2018-12-13T22:51:32.485Z,99019.98
2018-12-13T22:53:59.572Z,99021.91
2018-12-13T22:56:26.733Z,99025.47
2018-12-13T22:58:53.910Z,99021.23
2018-12-13T23:01:21.152Z,99016.20
2018-12-13T23:03:48.488Z,99014.66
2018-12-13T23:06:15.605Z,99010.65
2018-12-13T23:08:43.676Z,99019.92
2018-12-13T23:11:11.287Z,99019.06
2018-12-13T23:13:38.409Z,99015.02
2018-12-13T23:16:05.572Z,98982.01
2018-12-13T23:18:33.204Z,99017.54
2018-12-13T23:21:00.275Z,99013.05
2018-12-13T23:23:27.464Z,99017.28
2018-12-13T23:25:54.769Z,99019.39
2018-12-13T23:28:21.827Z,99011.42
2018-12-13T23:30:49.581Z,99004.73
2018-12-13T23:33:16.883Z,99013.86
2018-12-13T23:35:44.000Z,99015.70
2018-12-13T23:38:11.859Z,99021.30
2018-12-13T23:40:38.978Z,99019.03
2018-12-13T23:43:06.213Z,99025.42
2018-12-13T23:45:33.380Z,99032.97
2018-12-13T23:48:00.500Z,99023.53
2018-12-13T23:50:27.584Z,99024.97
2018-12-13T23:52:54.731Z,99028.79
2018-12-13T23:55:22.562Z,99028.24
2018-12-13T23:57:49.642Z,99030.08
